sensor_id;sensor_type;location;lat;lon;timestamp;temperature;humidity
37276;DHT22;23166;51.150;21.620;2022-11-15T00:00:48;6.20;99.90
37276;DHT22;23166;51.150;21.620;2022-11-15T00:03:16;6.20;99.90
37276;DHT22;23166;51.150;21.620;2022-11-15T00:05:43;6.20;99.90
37276;DHT22;23166;51.150;21.620;2022-11-15T00:08:09;6.20;99.90
37276;DHT22;23166;51.150;21.620;2022-11-15T00:10:37;6.10;99.90
37276;DHT22;23166;51.150;21.620;2022-11-15T00:13:07;6.10;99.90
37276;DHT22;23166;51.150;21.620;2022-11-15T00:15:35;6.10;99.90
37276;DHT22;23166;51.150;21.620;2022-11-15T00:18:03;6.10;99.90
37276;DHT22;23166;51.150;21.620;2022-11-15T00:20:29;6.10;99.90
37276;DHT22;23166;51.150;21.620;2022-11-15T00:22:56;6.10;99.90
37276;DHT22;23166;51.150;21.620;2022-11-15T00:25:22;6.10;99.90
37276;DHT22;23166;51.150;21.620;2022-11-15T00:27:49;6.10;99.90
37276;DHT22;23166;51.150;21.620;2022-11-15T00:30:15;6.10;99.90
37276;DHT22;23166;51.150;21.620;2022-11-15T00:32:42;6.10;99.90
37276;DHT22;23166;51.150;21.620;2022-11-15T00:35:09;6.10;99.90
37276;DHT22;23166;51.150;21.620;2022-11-15T00:37:35;6.10;99.90
37276;DHT22;23166;51.150;21.620;2022-11-15T00:40:02;6.10;99.90
37276;DHT22;23166;51.150;21.620;2022-11-15T00:42:28;6.00;99.90
37276;DHT22;23166;51.150;21.620;2022-11-15T00:44:55;6.00;99.90
37276;DHT22;23166;51.150;21.620;2022-11-15T00:47:22;6.00;99.90
37276;DHT22;23166;51.150;21.620;2022-11-15T00:49:48;6.00;99.90
37276;DHT22;23166;51.150;21.620;2022-11-15T00:52:14;6.00;99.90
37276;DHT22;23166;51.150;21.620;2022-11-15T00:54:41;6.00;99.90
37276;DHT22;23166;51.150;21.620;2022-11-15T00:57:07;5.90;99.90
37276;DHT22;23166;51.150;21.620;2022-11-15T00:59:33;5.90;99.90
37276;DHT22;23166;51.150;21.620;2022-11-15T01:02:00;5.90;99.90
37276;DHT22;23166;51.150;21.620;2022-11-15T01:04:27;5.90;99.90
37276;DHT22;23166;51.150;21.620;2022-11-15T01:06:53;5.80;99.90
37276;DHT22;23166;51.150;21.620;2022-11-15T01:09:20;5.80;99.90
37276;DHT22;23166;51.150;21.620;2022-11-15T01:11:46;5.80;99.90
37276;DHT22;23166;51.150;21.620;2022-11-15T01:14:13;5.80;99.90
37276;DHT22;23166;51.150;21.620;2022-11-15T05:09:02;4.90;99.90
37276;DHT22;23166;51.150;21.620;2022-11-15T05:11:29;4.90;99.90
37276;DHT22;23166;51.150;21.620;2022-11-15T05:13:55;4.90;99.90
37276;DHT22;23166;51.150;21.620;2022-11-15T05:16:22;4.90;99.90
37276;DHT22;23166;51.150;21.620;2022-11-15T05:18:50;4.90;99.90
37276;DHT22;23166;51.150;21.620;2022-11-15T05:21:17;4.80;99.90
37276;DHT22;23166;51.150;21.620;2022-11-15T05:23:43;4.80;99.90
37276;DHT22;23166;51.150;21.620;2022-11-15T05:26:11;4.80;99.90
37276;DHT22;23166;51.150;21.620;2022-11-15T05:28:38;4.70;99.90
37276;DHT22;23166;51.150;21.620;2022-11-15T05:31:12;4.70;99.90
37276;DHT22;23166;51.150;21.620;2022-11-15T05:33:41;4.70;99.90
37276;DHT22;23166;51.150;21.620;2022-11-15T05:36:21;4.70;99.90
37276;DHT22;23166;51.150;21.620;2022-11-15T05:38:48;4.70;99.90
37276;DHT22;23166;51.150;21.620;2022-11-15T05:41:17;4.70;99.90
37276;DHT22;23166;51.150;21.620;2022-11-15T05:43:45;4.60;99.90
37276;DHT22;23166;51.150;21.620;2022-11-15T05:46:12;4.70;99.90
37276;DHT22;23166;51.150;21.620;2022-11-15T05:48:42;4.70;99.90
37276;DHT22;23166;51.150;21.620;2022-11-15T05:51:09;4.70;99.90
37276;DHT22;23166;51.150;21.620;2022-11-15T05:53:36;4.70;99.90
37276;DHT22;23166;51.150;21.620;2022-11-15T05:56:04;4.70;99.90
37276;DHT22;23166;51.150;21.620;2022-11-15T05:58:32;4.70;99.90
37276;DHT22;23166;51.150;21.620;2022-11-15T06:01:00;4.70;99.90
37276;DHT22;23166;51.150;21.620;2022-11-15T06:03:26;4.70;99.90
37276;DHT22;23166;51.150;21.620;2022-11-15T06:05:53;4.70;99.90
37276;DHT22;23166;51.150;21.620;2022-11-15T06:08:19;4.70;99.90
37276;DHT22;23166;51.150;21.620;2022-11-15T06:10:46;4.70;99.90
37276;DHT22;23166;51.150;21.620;2022-11-15T06:13:12;4.70;99.90
37276;DHT22;23166;51.150;21.620;2022-11-15T06:15:38;4.70;99.90
37276;DHT22;23166;51.150;21.620;2022-11-15T06:18:05;4.70;99.90
37276;DHT22;23166;51.150;21.620;2022-11-15T06:20:31;4.80;99.90
37276;DHT22;23166;51.150;21.620;2022-11-15T06:23:03;4.80;99.90
37276;DHT22;23166;51.150;21.620;2022-11-15T06:25:30;4.80;99.90
37276;DHT22;23166;51.150;21.620;2022-11-15T06:27:58;4.80;99.90
37276;DHT22;23166;51.150;21.620;2022-11-15T06:30:25;4.80;99.90
37276;DHT22;23166;51.150;21.620;2022-11-15T06:33:00;4.80;99.90
37276;DHT22;23166;51.150;21.620;2022-11-15T06:35:27;4.80;99.90
37276;DHT22;23166;51.150;21.620;2022-11-15T06:37:54;4.80;99.90
37276;DHT22;23166;51.150;21.620;2022-11-15T06:40:20;4.80;99.90
37276;DHT22;23166;51.150;21.620;2022-11-15T06:42:46;4.80;99.90
37276;DHT22;23166;51.150;21.620;2022-11-15T06:45:13;4.80;99.90
37276;DHT22;23166;51.150;21.620;2022-11-15T06:47:44;4.80;99.90
37276;DHT22;23166;51.150;21.620;2022-11-15T06:50:11;4.80;99.90
37276;DHT22;23166;51.150;21.620;2022-11-15T06:52:37;4.90;99.90
37276;DHT22;23166;51.150;21.620;2022-11-15T06:55:04;4.90;99.90
37276;DHT22;23166;51.150;21.620;2022-11-15T06:57:31;4.90;99.90
37276;DHT22;23166;51.150;21.620;2022-11-15T06:59:58;4.90;99.90
37276;DHT22;23166;51.150;21.620;2022-11-15T07:02:25;5.00;99.90
37276;DHT22;23166;51.150;21.620;2022-11-15T07:04:51;5.00;99.90
37276;DHT22;23166;51.150;21.620;2022-11-15T07:07:18;5.00;99.90
37276;DHT22;23166;51.150;21.620;2022-11-15T07:09:44;5.00;99.90
37276;DHT22;23166;51.150;21.620;2022-11-15T07:12:10;5.10;99.90
37276;DHT22;23166;51.150;21.620;2022-11-15T07:14:37;5.10;99.90
37276;DHT22;23166;51.150;21.620;2022-11-15T07:17:04;5.10;99.90
37276;DHT22;23166;51.150;21.620;2022-11-15T07:19:31;5.20;99.90
37276;DHT22;23166;51.150;21.620;2022-11-15T07:21:57;5.20;99.90
37276;DHT22;23166;51.150;21.620;2022-11-15T07:24:24;5.20;99.90
37276;DHT22;23166;51.150;21.620;2022-11-15T07:26:50;5.30;99.90
37276;DHT22;23166;51.150;21.620;2022-11-15T07:29:16;5.30;99.90
37276;DHT22;23166;51.150;21.620;2022-11-15T07:31:43;5.40;99.90
37276;DHT22;23166;51.150;21.620;2022-11-15T07:34:09;5.40;99.90
37276;DHT22;23166;51.150;21.620;2022-11-15T07:36:36;5.50;99.90
37276;DHT22;23166;51.150;21.620;2022-11-15T07:39:02;5.50;99.90
37276;DHT22;23166;51.150;21.620;2022-11-15T07:41:29;5.60;99.90
37276;DHT22;23166;51.150;21.620;2022-11-15T07:43:55;5.60;99.90
37276;DHT22;23166;51.150;21.620;2022-11-15T07:46:23;5.70;99.90
37276;DHT22;23166;51.150;21.620;2022-11-15T07:48:49;5.80;99.90
37276;DHT22;23166;51.150;21.620;2022-11-15T07:51:16;5.80;99.90
37276;DHT22;23166;51.150;21.620;2022-11-15T07:53:43;5.90;99.90
37276;DHT22;23166;51.150;21.620;2022-11-15T07:56:10;6.00;99.90
37276;DHT22;23166;51.150;21.620;2022-11-15T07:58:37;6.00;99.90
37276;DHT22;23166;51.150;21.620;2022-11-15T08:01:04;6.00;99.90
37276;DHT22;23166;51.150;21.620;2022-11-15T08:03:31;6.00;99.90
37276;DHT22;23166;51.150;21.620;2022-11-15T08:05:58;6.10;99.90
37276;DHT22;23166;51.150;21.620;2022-11-15T08:08:25;6.10;99.90
37276;DHT22;23166;51.150;21.620;2022-11-15T08:10:51;6.10;99.90
37276;DHT22;23166;51.150;21.620;2022-11-15T08:13:18;6.20;99.90
37276;DHT22;23166;51.150;21.620;2022-11-15T08:15:44;6.20;99.90
37276;DHT22;23166;51.150;21.620;2022-11-15T08:18:13;6.30;99.90
37276;DHT22;23166;51.150;21.620;2022-11-15T08:20:41;6.30;99.90
37276;DHT22;23166;51.150;21.620;2022-11-15T08:23:11;6.40;99.90
37276;DHT22;23166;51.150;21.620;2022-11-15T08:25:38;6.40;99.90
37276;DHT22;23166;51.150;21.620;2022-11-15T08:28:06;6.50;99.90
37276;DHT22;23166;51.150;21.620;2022-11-15T08:30:38;6.60;99.90
37276;DHT22;23166;51.150;21.620;2022-11-15T08:33:12;6.70;99.90
37276;DHT22;23166;51.150;21.620;2022-11-15T08:35:40;6.80;99.90
37276;DHT22;23166;51.150;21.620;2022-11-15T08:38:07;6.80;99.90
37276;DHT22;23166;51.150;21.620;2022-11-15T08:40:33;6.90;99.90
37276;DHT22;23166;51.150;21.620;2022-11-15T08:42:59;6.90;99.90
37276;DHT22;23166;51.150;21.620;2022-11-15T08:45:28;7.00;99.90
37276;DHT22;23166;51.150;21.620;2022-11-15T08:47:55;7.00;99.90
37276;DHT22;23166;51.150;21.620;2022-11-15T08:50:21;7.10;99.90
37276;DHT22;23166;51.150;21.620;2022-11-15T08:52:48;7.20;99.90
37276;DHT22;23166;51.150;21.620;2022-11-15T08:55:14;7.20;99.90
37276;DHT22;23166;51.150;21.620;2022-11-15T08:57:41;7.30;99.90
37276;DHT22;23166;51.150;21.620;2022-11-15T09:00:08;7.40;99.90
37276;DHT22;23166;51.150;21.620;2022-11-15T09:02:37;7.50;99.90
37276;DHT22;23166;51.150;21.620;2022-11-15T09:05:04;7.50;99.90
37276;DHT22;23166;51.150;21.620;2022-11-15T09:07:31;7.60;99.90
37276;DHT22;23166;51.150;21.620;2022-11-15T09:09:57;7.70;99.90
37276;DHT22;23166;51.150;21.620;2022-11-15T09:12:24;7.80;96.60
37276;DHT22;23166;51.150;21.620;2022-11-15T09:14:52;7.80;94.60
37276;DHT22;23166;51.150;21.620;2022-11-15T09:17:18;7.80;95.60
37276;DHT22;23166;51.150;21.620;2022-11-15T09:19:45;7.80;97.10
37276;DHT22;23166;51.150;21.620;2022-11-15T09:22:11;7.80;95.70
37276;DHT22;23166;51.150;21.620;2022-11-15T09:24:37;7.90;94.90
37276;DHT22;23166;51.150;21.620;2022-11-15T09:27:04;7.90;95.40
37276;DHT22;23166;51.150;21.620;2022-11-15T09:29:30;7.90;94.30
37276;DHT22;23166;51.150;21.620;2022-11-15T09:31:56;8.00;94.10
37276;DHT22;23166;51.150;21.620;2022-11-15T09:34:23;8.00;92.40
37276;DHT22;23166;51.150;21.620;2022-11-15T09:36:49;8.00;93.50
37276;DHT22;23166;51.150;21.620;2022-11-15T09:39:15;8.00;94.10
37276;DHT22;23166;51.150;21.620;2022-11-15T09:41:58;8.10;94.60
37276;DHT22;23166;51.150;21.620;2022-11-15T09:44:33;8.20;94.30
37276;DHT22;23166;51.150;21.620;2022-11-15T09:49:30;8.30;93.20
37276;DHT22;23166;51.150;21.620;2022-11-15T09:51:58;8.50;94.70
37276;DHT22;23166;51.150;21.620;2022-11-15T09:57:15;8.60;95.00
37276;DHT22;23166;51.150;21.620;2022-11-15T10:05:44;8.90;83.40
37276;DHT22;23166;51.150;21.620;2022-11-15T10:15:49;9.10;72.80
37276;DHT22;23166;51.150;21.620;2022-11-15T10:18:34;9.10;67.80
37276;DHT22;23166;51.150;21.620;2022-11-15T10:21:02;9.10;61.80
37276;DHT22;23166;51.150;21.620;2022-11-15T10:23:29;9.10;62.30
37276;DHT22;23166;51.150;21.620;2022-11-15T10:25:58;9.10;57.50
37276;DHT22;23166;51.150;21.620;2022-11-15T10:28:30;9.10;55.80
37276;DHT22;23166;51.150;21.620;2022-11-15T10:31:00;9.10;48.90
37276;DHT22;23166;51.150;21.620;2022-11-15T10:33:38;9.20;60.10
37276;DHT22;23166;51.150;21.620;2022-11-15T10:36:19;9.30;64.80
37276;DHT22;23166;51.150;21.620;2022-11-15T10:41:35;9.60;49.90
37276;DHT22;23166;51.150;21.620;2022-11-15T10:44:17;9.70;38.80
37276;DHT22;23166;51.150;21.620;2022-11-15T10:46:41;9.70;51.00
37276;DHT22;23166;51.150;21.620;2022-11-15T10:49:17;9.80;36.90
37276;DHT22;23166;51.150;21.620;2022-11-15T10:51:56;9.80;28.50
37276;DHT22;23166;51.150;21.620;2022-11-15T10:54:41;9.90;37.00
37276;DHT22;23166;51.150;21.620;2022-11-15T10:57:24;10.00;27.70
37276;DHT22;23166;51.150;21.620;2022-11-15T10:59:58;10.20;32.10
37276;DHT22;23166;51.150;21.620;2022-11-15T11:04:57;10.40;23.90
37276;DHT22;23166;51.150;21.620;2022-11-15T11:07:28;10.40;19.90
37276;DHT22;23166;51.150;21.620;2022-11-15T11:10:17;10.30;11.80
37276;DHT22;23166;51.150;21.620;2022-11-15T11:12:33;10.20;6.00
37276;DHT22;23166;51.150;21.620;2022-11-15T11:15:05;10.10;1.70
37276;DHT22;23166;51.150;21.620;2022-11-15T11:28:38;10.10;37.10
37276;DHT22;23166;51.150;21.620;2022-11-15T11:39:29;10.50;18.00
37276;DHT22;23166;51.150;21.620;2022-11-15T11:42:03;10.60;22.80
37276;DHT22;23166;51.150;21.620;2022-11-15T11:47:23;10.70;15.80
37276;DHT22;23166;51.150;21.620;2022-11-15T11:49:56;10.70;1.00
37276;DHT22;23166;51.150;21.620;2022-11-15T11:55:22;10.40;17.30
37276;DHT22;23166;51.150;21.620;2022-11-15T12:01:37;10.20;36.30
37276;DHT22;23166;51.150;21.620;2022-11-15T12:03:44;10.30;46.70
37276;DHT22;23166;51.150;21.620;2022-11-15T12:16:58;10.40;21.90
37276;DHT22;23166;51.150;21.620;2022-11-15T12:19:26;10.30;23.80
37276;DHT22;23166;51.150;21.620;2022-11-15T12:24:29;10.00;19.80
37276;DHT22;23166;51.150;21.620;2022-11-15T12:26:59;9.80;21.70
37276;DHT22;23166;51.150;21.620;2022-11-15T12:29:30;9.60;53.90
37276;DHT22;23166;51.150;21.620;2022-11-15T12:31:56;9.50;58.50
37276;DHT22;23166;51.150;21.620;2022-11-15T12:34:43;9.30;67.40
37276;DHT22;23166;51.150;21.620;2022-11-15T12:37:33;9.10;79.10
37276;DHT22;23166;51.150;21.620;2022-11-15T12:45:30;8.80;93.40
37276;DHT22;23166;51.150;21.620;2022-11-15T12:56:18;8.40;97.50
37276;DHT22;23166;51.150;21.620;2022-11-15T13:06:59;8.40;99.70
37276;DHT22;23166;51.150;21.620;2022-11-15T13:17:26;8.40;99.90
37276;DHT22;23166;51.150;21.620;2022-11-15T13:23:11;8.40;99.90
37276;DHT22;23166;51.150;21.620;2022-11-15T13:29:12;8.40;99.90
37276;DHT22;23166;51.150;21.620;2022-11-15T13:30:59;8.40;99.90
37276;DHT22;23166;51.150;21.620;2022-11-15T13:33:34;8.40;99.90
37276;DHT22;23166;51.150;21.620;2022-11-15T13:36:05;8.30;99.90
37276;DHT22;23166;51.150;21.620;2022-11-15T13:38:34;8.30;99.90
37276;DHT22;23166;51.150;21.620;2022-11-15T13:43:48;8.20;99.90
37276;DHT22;23166;51.150;21.620;2022-11-15T13:48:48;8.00;99.90
37276;DHT22;23166;51.150;21.620;2022-11-15T13:56:37;7.80;99.90
37276;DHT22;23166;51.150;21.620;2022-11-15T14:01:58;7.60;99.90
37276;DHT22;23166;51.150;21.620;2022-11-15T14:04:28;7.60;99.90
37276;DHT22;23166;51.150;21.620;2022-11-15T14:07:01;7.50;99.90
37276;DHT22;23166;51.150;21.620;2022-11-15T14:09:37;7.40;99.90
37276;DHT22;23166;51.150;21.620;2022-11-15T14:12:30;7.30;99.90
37276;DHT22;23166;51.150;21.620;2022-11-15T14:15:00;7.20;99.90
37276;DHT22;23166;51.150;21.620;2022-11-15T14:17:35;7.10;99.90
37276;DHT22;23166;51.150;21.620;2022-11-15T14:20:19;7.00;99.90
37276;DHT22;23166;51.150;21.620;2022-11-15T14:22:32;6.90;99.90
37276;DHT22;23166;51.150;21.620;2022-11-15T14:25:22;6.80;99.90
37276;DHT22;23166;51.150;21.620;2022-11-15T14:28:12;6.60;99.90
37276;DHT22;23166;51.150;21.620;2022-11-15T14:30:39;6.50;99.90
37276;DHT22;23166;51.150;21.620;2022-11-15T14:35:54;6.30;99.90
37276;DHT22;23166;51.150;21.620;2022-11-15T14:38:21;6.20;99.90
37276;DHT22;23166;51.150;21.620;2022-11-15T14:40:48;6.10;99.90
37276;DHT22;23166;51.150;21.620;2022-11-15T14:43:15;6.00;99.90
37276;DHT22;23166;51.150;21.620;2022-11-15T14:45:41;5.90;99.90
37276;DHT22;23166;51.150;21.620;2022-11-15T14:48:08;5.80;99.90
37276;DHT22;23166;51.150;21.620;2022-11-15T14:50:35;5.70;99.90
37276;DHT22;23166;51.150;21.620;2022-11-15T14:53:01;5.60;99.90
37276;DHT22;23166;51.150;21.620;2022-11-15T14:55:30;5.60;99.90
37276;DHT22;23166;51.150;21.620;2022-11-15T14:57:58;5.50;99.90
37276;DHT22;23166;51.150;21.620;2022-11-15T15:00:25;5.40;99.90
37276;DHT22;23166;51.150;21.620;2022-11-15T15:02:53;5.40;99.90
37276;DHT22;23166;51.150;21.620;2022-11-15T15:05:23;5.30;99.90
37276;DHT22;23166;51.150;21.620;2022-11-15T15:07:50;5.30;99.90
37276;DHT22;23166;51.150;21.620;2022-11-15T15:10:19;5.20;99.90
37276;DHT22;23166;51.150;21.620;2022-11-15T15:12:45;5.20;99.90
37276;DHT22;23166;51.150;21.620;2022-11-15T15:15:21;5.20;99.90
37276;DHT22;23166;51.150;21.620;2022-11-15T15:17:47;5.20;99.90
37276;DHT22;23166;51.150;21.620;2022-11-15T15:20:14;5.20;99.90
37276;DHT22;23166;51.150;21.620;2022-11-15T15:22:40;5.20;99.90
37276;DHT22;23166;51.150;21.620;2022-11-15T15:25:26;5.20;99.90
37276;DHT22;23166;51.150;21.620;2022-11-15T15:27:53;5.10;99.90
37276;DHT22;23166;51.150;21.620;2022-11-15T15:30:24;5.10;99.90
37276;DHT22;23166;51.150;21.620;2022-11-15T15:32:51;5.10;99.90
37276;DHT22;23166;51.150;21.620;2022-11-15T15:35:18;5.10;99.90
37276;DHT22;23166;51.150;21.620;2022-11-15T15:37:45;5.10;99.90
37276;DHT22;23166;51.150;21.620;2022-11-15T15:40:15;5.10;99.90
37276;DHT22;23166;51.150;21.620;2022-11-15T15:42:42;5.10;99.90
37276;DHT22;23166;51.150;21.620;2022-11-15T15:45:10;5.10;99.90
37276;DHT22;23166;51.150;21.620;2022-11-15T15:47:36;5.10;99.90
37276;DHT22;23166;51.150;21.620;2022-11-15T15:52:44;5.00;99.90
37276;DHT22;23166;51.150;21.620;2022-11-15T15:55:10;5.00;99.90
37276;DHT22;23166;51.150;21.620;2022-11-15T15:57:36;5.00;99.90
37276;DHT22;23166;51.150;21.620;2022-11-15T16:00:04;5.00;99.90
37276;DHT22;23166;51.150;21.620;2022-11-15T16:02:30;5.00;99.90
37276;DHT22;23166;51.150;21.620;2022-11-15T16:04:57;4.90;99.90
37276;DHT22;23166;51.150;21.620;2022-11-15T16:07:23;4.80;99.90
37276;DHT22;23166;51.150;21.620;2022-11-15T16:09:50;4.80;99.90
37276;DHT22;23166;51.150;21.620;2022-11-15T16:12:35;4.70;99.90
37276;DHT22;23166;51.150;21.620;2022-11-15T16:14:59;4.60;99.90
37276;DHT22;23166;51.150;21.620;2022-11-15T16:17:33;4.50;99.90
37276;DHT22;23166;51.150;21.620;2022-11-15T16:20:01;4.50;99.90
37276;DHT22;23166;51.150;21.620;2022-11-15T16:22:27;4.50;99.90
37276;DHT22;23166;51.150;21.620;2022-11-15T16:24:55;4.40;99.90
37276;DHT22;23166;51.150;21.620;2022-11-15T16:27:22;4.40;99.90
37276;DHT22;23166;51.150;21.620;2022-11-15T16:29:49;4.40;99.90
37276;DHT22;23166;51.150;21.620;2022-11-15T16:32:16;4.30;99.90
37276;DHT22;23166;51.150;21.620;2022-11-15T16:34:42;4.30;99.90
37276;DHT22;23166;51.150;21.620;2022-11-15T16:37:23;4.40;99.90
37276;DHT22;23166;51.150;21.620;2022-11-15T16:39:50;4.40;99.90
37276;DHT22;23166;51.150;21.620;2022-11-15T16:42:16;4.40;99.90
37276;DHT22;23166;51.150;21.620;2022-11-15T16:44:43;4.50;99.90
37276;DHT22;23166;51.150;21.620;2022-11-15T16:47:17;4.50;99.90
37276;DHT22;23166;51.150;21.620;2022-11-15T16:49:47;4.50;99.90
37276;DHT22;23166;51.150;21.620;2022-11-15T16:52:14;4.60;99.90
37276;DHT22;23166;51.150;21.620;2022-11-15T16:54:40;4.60;99.90
37276;DHT22;23166;51.150;21.620;2022-11-15T16:57:09;4.50;99.90
37276;DHT22;23166;51.150;21.620;2022-11-15T16:59:36;4.60;99.90
37276;DHT22;23166;51.150;21.620;2022-11-15T17:02:02;4.50;99.90
37276;DHT22;23166;51.150;21.620;2022-11-15T17:04:28;4.50;99.90
37276;DHT22;23166;51.150;21.620;2022-11-15T17:06:57;4.50;99.90
37276;DHT22;23166;51.150;21.620;2022-11-15T17:09:23;4.50;99.90
37276;DHT22;23166;51.150;21.620;2022-11-15T17:11:49;4.50;99.90
37276;DHT22;23166;51.150;21.620;2022-11-15T17:14:16;4.50;99.90
37276;DHT22;23166;51.150;21.620;2022-11-15T17:16:43;4.40;99.90
37276;DHT22;23166;51.150;21.620;2022-11-15T17:19:14;4.40;99.90
37276;DHT22;23166;51.150;21.620;2022-11-15T17:21:41;4.40;99.90
37276;DHT22;23166;51.150;21.620;2022-11-15T17:24:08;4.30;99.90
37276;DHT22;23166;51.150;21.620;2022-11-15T17:26:35;4.30;99.90
37276;DHT22;23166;51.150;21.620;2022-11-15T17:29:01;4.20;99.90
37276;DHT22;23166;51.150;21.620;2022-11-15T17:31:29;4.20;99.90
37276;DHT22;23166;51.150;21.620;2022-11-15T17:33:57;4.20;99.90
37276;DHT22;23166;51.150;21.620;2022-11-15T17:36:24;4.20;99.90
37276;DHT22;23166;51.150;21.620;2022-11-15T17:38:50;4.20;99.90
37276;DHT22;23166;51.150;21.620;2022-11-15T17:41:18;4.20;99.90
37276;DHT22;23166;51.150;21.620;2022-11-15T17:43:46;4.20;99.90
37276;DHT22;23166;51.150;21.620;2022-11-15T17:46:13;4.20;99.90
37276;DHT22;23166;51.150;21.620;2022-11-15T17:48:40;4.10;99.90
37276;DHT22;23166;51.150;21.620;2022-11-15T17:51:10;4.20;99.90
37276;DHT22;23166;51.150;21.620;2022-11-15T17:53:39;4.20;99.90
37276;DHT22;23166;51.150;21.620;2022-11-15T17:56:08;4.20;99.90
37276;DHT22;23166;51.150;21.620;2022-11-15T17:58:35;4.20;99.90
37276;DHT22;23166;51.150;21.620;2022-11-15T18:01:11;4.30;99.90
37276;DHT22;23166;51.150;21.620;2022-11-15T18:03:37;4.30;99.90
37276;DHT22;23166;51.150;21.620;2022-11-15T18:06:06;4.30;99.90
37276;DHT22;23166;51.150;21.620;2022-11-15T18:08:38;4.30;99.90
37276;DHT22;23166;51.150;21.620;2022-11-15T18:13:35;4.30;99.90
37276;DHT22;23166;51.150;21.620;2022-11-15T18:16:03;4.30;99.90
37276;DHT22;23166;51.150;21.620;2022-11-15T18:18:31;4.30;99.90
37276;DHT22;23166;51.150;21.620;2022-11-15T18:21:00;4.30;99.90
37276;DHT22;23166;51.150;21.620;2022-11-15T18:23:26;4.30;99.90
37276;DHT22;23166;51.150;21.620;2022-11-15T18:25:53;4.30;99.90
37276;DHT22;23166;51.150;21.620;2022-11-15T18:28:20;4.30;99.90
37276;DHT22;23166;51.150;21.620;2022-11-15T18:30:46;4.30;99.90
37276;DHT22;23166;51.150;21.620;2022-11-15T18:33:12;4.20;99.90
37276;DHT22;23166;51.150;21.620;2022-11-15T18:35:39;4.20;99.90
37276;DHT22;23166;51.150;21.620;2022-11-15T18:38:05;4.20;99.90
37276;DHT22;23166;51.150;21.620;2022-11-15T18:40:31;4.20;99.90
37276;DHT22;23166;51.150;21.620;2022-11-15T18:42:58;4.20;99.90
37276;DHT22;23166;51.150;21.620;2022-11-15T18:45:24;4.20;99.90
37276;DHT22;23166;51.150;21.620;2022-11-15T18:47:50;4.20;99.90
37276;DHT22;23166;51.150;21.620;2022-11-15T18:50:17;4.10;99.90
37276;DHT22;23166;51.150;21.620;2022-11-15T18:52:43;4.10;99.90
37276;DHT22;23166;51.150;21.620;2022-11-15T18:55:10;4.10;99.90
37276;DHT22;23166;51.150;21.620;2022-11-15T18:57:36;4.10;99.90
37276;DHT22;23166;51.150;21.620;2022-11-15T19:00:03;4.10;99.90
37276;DHT22;23166;51.150;21.620;2022-11-15T19:02:30;4.10;99.90
37276;DHT22;23166;51.150;21.620;2022-11-15T19:04:56;4.10;99.90
37276;DHT22;23166;51.150;21.620;2022-11-15T19:07:22;4.10;99.90
37276;DHT22;23166;51.150;21.620;2022-11-15T19:09:49;4.10;99.90
37276;DHT22;23166;51.150;21.620;2022-11-15T19:12:15;4.10;99.90
37276;DHT22;23166;51.150;21.620;2022-11-15T19:14:42;4.00;99.90
37276;DHT22;23166;51.150;21.620;2022-11-15T19:17:08;4.00;99.90
37276;DHT22;23166;51.150;21.620;2022-11-15T19:19:34;4.10;99.90
37276;DHT22;23166;51.150;21.620;2022-11-15T19:22:01;4.00;99.90
37276;DHT22;23166;51.150;21.620;2022-11-15T19:24:27;4.00;99.90
37276;DHT22;23166;51.150;21.620;2022-11-15T19:26:55;4.00;99.90
37276;DHT22;23166;51.150;21.620;2022-11-15T19:29:21;4.00;99.90
37276;DHT22;23166;51.150;21.620;2022-11-15T19:31:47;4.00;99.90
37276;DHT22;23166;51.150;21.620;2022-11-15T19:34:14;4.10;99.90
37276;DHT22;23166;51.150;21.620;2022-11-15T19:36:41;4.10;99.90
37276;DHT22;23166;51.150;21.620;2022-11-15T19:39:11;4.10;99.90
37276;DHT22;23166;51.150;21.620;2022-11-15T19:41:39;4.10;99.90
37276;DHT22;23166;51.150;21.620;2022-11-15T19:44:07;4.10;99.90
37276;DHT22;23166;51.150;21.620;2022-11-15T19:46:34;4.10;99.90
37276;DHT22;23166;51.150;21.620;2022-11-15T19:49:01;4.00;99.90
37276;DHT22;23166;51.150;21.620;2022-11-15T19:51:28;4.00;99.90
37276;DHT22;23166;51.150;21.620;2022-11-15T19:53:58;4.00;99.90
37276;DHT22;23166;51.150;21.620;2022-11-15T19:56:26;4.00;99.90
37276;DHT22;23166;51.150;21.620;2022-11-15T19:58:53;3.90;99.90
37276;DHT22;23166;51.150;21.620;2022-11-15T20:03:51;3.90;99.90
37276;DHT22;23166;51.150;21.620;2022-11-15T20:06:24;3.90;99.90
37276;DHT22;23166;51.150;21.620;2022-11-15T20:08:51;3.90;99.90
37276;DHT22;23166;51.150;21.620;2022-11-15T20:11:18;3.90;99.90
37276;DHT22;23166;51.150;21.620;2022-11-15T20:13:45;3.90;99.90
37276;DHT22;23166;51.150;21.620;2022-11-15T20:16:19;3.90;99.90
37276;DHT22;23166;51.150;21.620;2022-11-15T20:18:42;3.90;99.90
37276;DHT22;23166;51.150;21.620;2022-11-15T20:21:08;3.90;99.90
37276;DHT22;23166;51.150;21.620;2022-11-15T20:23:35;3.90;99.90
37276;DHT22;23166;51.150;21.620;2022-11-15T20:26:01;4.00;99.90
37276;DHT22;23166;51.150;21.620;2022-11-15T20:28:28;4.00;99.90
37276;DHT22;23166;51.150;21.620;2022-11-15T20:30:57;4.00;99.90
37276;DHT22;23166;51.150;21.620;2022-11-15T20:33:24;4.00;99.90
37276;DHT22;23166;51.150;21.620;2022-11-15T20:35:51;4.00;99.90
37276;DHT22;23166;51.150;21.620;2022-11-15T20:38:17;4.00;99.90
37276;DHT22;23166;51.150;21.620;2022-11-15T20:40:46;4.00;99.90
37276;DHT22;23166;51.150;21.620;2022-11-15T20:43:14;4.00;99.90
37276;DHT22;23166;51.150;21.620;2022-11-15T20:45:45;4.10;99.90
37276;DHT22;23166;51.150;21.620;2022-11-15T20:48:12;4.10;99.90
37276;DHT22;23166;51.150;21.620;2022-11-15T20:50:42;4.10;99.90
37276;DHT22;23166;51.150;21.620;2022-11-15T20:53:11;4.10;99.90
37276;DHT22;23166;51.150;21.620;2022-11-15T20:55:43;4.20;99.90
37276;DHT22;23166;51.150;21.620;2022-11-15T20:58:11;4.20;99.90
37276;DHT22;23166;51.150;21.620;2022-11-15T21:00:37;4.20;99.90
37276;DHT22;23166;51.150;21.620;2022-11-15T21:03:06;4.20;99.90
37276;DHT22;23166;51.150;21.620;2022-11-15T21:05:33;4.30;99.90
37276;DHT22;23166;51.150;21.620;2022-11-15T21:08:01;4.30;99.90
37276;DHT22;23166;51.150;21.620;2022-11-15T21:10:28;4.30;99.90
37276;DHT22;23166;51.150;21.620;2022-11-15T21:13:12;4.40;99.90
37276;DHT22;23166;51.150;21.620;2022-11-15T21:15:38;4.40;99.90
37276;DHT22;23166;51.150;21.620;2022-11-15T21:18:05;4.40;99.90
37276;DHT22;23166;51.150;21.620;2022-11-15T21:20:31;4.40;99.90
37276;DHT22;23166;51.150;21.620;2022-11-15T21:22:58;4.40;99.90
37276;DHT22;23166;51.150;21.620;2022-11-15T21:25:24;4.50;99.90
37276;DHT22;23166;51.150;21.620;2022-11-15T21:27:51;4.50;99.90
37276;DHT22;23166;51.150;21.620;2022-11-15T21:30:17;4.50;99.90
37276;DHT22;23166;51.150;21.620;2022-11-15T21:32:44;4.50;99.90
37276;DHT22;23166;51.150;21.620;2022-11-15T21:35:10;4.50;99.90